Time;durP1;ratioP1;P1;durP2;ratioP2;P2;SDS_P1;SDS_P2;PMS_P1;PMS_P2;Temp;Humidity;BMP_temperature;BMP_pressure;BME280_temperature;BME280_humidity;BME280_pressure;Samples;Min_cycle;Max_cycle;Signal;HPM_P1;HPM_P2
2022/12/26 00:01:10;;;;;;;58.65;34.72;;;;;;;0.29;100.00;93996.41;5068656;28;20044;-70
2022/12/26 00:03:37;;;;;;;50.20;30.27;;;;;;;0.38;100.00;94002.41;5069048;28;20114;-70
2022/12/26 00:06:05;;;;;;;55.88;34.22;;;;;;;0.36;100.00;94009.31;5069080;28;20048;-70
2022/12/26 00:08:31;;;;;;;58.17;34.28;;;;;;;0.11;100.00;93964.16;5068864;28;20052;-70
2022/12/26 00:10:58;;;;;;;61.88;40.70;;;;;;;0.39;100.00;94009.06;5069319;28;20040;-70
2022/12/26 00:13:26;;;;;;;62.00;38.72;;;;;;;0.40;100.00;94013.19;5068558;28;20048;-71
2022/12/26 00:15:53;;;;;;;64.80;38.13;;;;;;;0.42;100.00;94002.94;5069378;28;20094;-71
2022/12/26 00:18:20;;;;;;;62.95;38.75;;;;;;;0.40;100.00;94000.53;5068814;28;20048;-71
2022/12/26 00:20:46;;;;;;;64.53;38.67;;;;;;;0.40;100.00;94005.59;5068680;28;20497;-71
2022/12/26 00:23:13;;;;;;;61.47;38.78;;;;;;;0.39;100.00;94014.13;5069132;28;20105;-70
2022/12/26 00:25:40;;;;;;;58.45;37.03;;;;;;;0.40;100.00;94010.66;5068667;28;20497;-70
2022/12/26 00:28:06;;;;;;;57.50;35.35;;;;;;;0.41;100.00;94017.31;5068669;28;20048;-70
2022/12/26 00:30:37;;;;;;;71.75;38.58;;;;;;;0.37;100.00;94021.03;5060504;28;20103;-70
2022/12/26 00:33:04;;;;;;;62.17;38.10;;;;;;;0.30;100.00;94018.22;5064325;28;20423;-70
2022/12/26 00:35:31;;;;;;;87.20;47.58;;;;;;;0.23;100.00;94025.47;5068947;28;20097;-71
2022/12/26 00:37:57;;;;;;;82.35;45.83;;;;;;;0.22;100.00;94028.13;5068499;28;20098;-71
2022/12/26 00:40:24;;;;;;;81.60;44.22;;;;;;;0.17;100.00;94030.22;5069040;28;20045;-70
2022/12/26 00:42:51;;;;;;;76.97;43.15;;;;;;;0.12;100.00;94033.13;5068628;28;20539;-71
2022/12/26 00:45:18;;;;;;;75.03;40.47;;;;;;;0.05;100.00;94024.47;5068330;28;20049;-70
2022/12/26 00:47:46;;;;;;;75.63;42.78;;;;;;;0.06;100.00;94031.13;5068644;28;20102;-71
2022/12/26 00:50:13;;;;;;;66.32;37.45;;;;;;;0.02;100.00;94043.19;5068786;28;20142;-71
2022/12/26 00:52:39;;;;;;;67.25;37.65;;;;;;;-0.01;100.00;94036.66;5069040;28;20114;-71
2022/12/26 00:55:07;;;;;;;64.80;36.25;;;;;;;-0.04;100.00;94039.44;5068130;28;20576;-71
2022/12/26 00:57:33;;;;;;;65.35;38.58;;;;;;;-0.07;100.00;94036.34;5068661;28;20126;-70
2022/12/26 01:00:00;;;;;;;73.93;46.75;;;;;;;-0.18;100.00;94025.38;5069622;28;20045;-71
2022/12/26 01:02:39;;;;;;;82.32;46.58;;;;;;;-0.15;100.00;94021.81;5072314;28;20488;-71
2022/12/26 01:05:09;;;;;;;75.85;44.92;;;;;;;-0.08;100.00;94029.69;5072179;28;20492;-71
2022/12/26 01:07:36;;;;;;;72.13;43.00;;;;;;;-0.16;100.00;94021.03;5072249;28;20052;-71
2022/12/26 01:10:04;;;;;;;56.22;35.92;;;;;;;0.01;100.00;94044.13;5072479;28;20110;-71
2022/12/26 01:12:31;;;;;;;57.65;35.20;;;;;;;0.08;100.00;94042.69;5072244;28;20090;-71
2022/12/26 01:14:59;;;;;;;66.15;39.20;;;;;;;0.07;100.00;94045.34;5072117;28;20132;-71
2022/12/26 01:17:28;;;;;;;68.30;41.08;;;;;;;0.01;100.00;94046.66;5072048;28;20094;-71
2022/12/26 01:19:55;;;;;;;45.55;28.92;;;;;;;0.00;100.00;94045.06;5068284;28;20067;-71
2022/12/26 01:22:24;;;;;;;52.67;31.17;;;;;;;-0.03;100.00;94053.69;5064720;28;20052;-71
2022/12/26 01:24:53;;;;;;;56.40;33.67;;;;;;;-0.08;100.00;94058.31;5071509;28;20090;-71
2022/12/26 01:27:21;;;;;;;48.38;32.33;;;;;;;-0.09;100.00;94063.47;5072012;28;20048;-72
2022/12/26 01:29:47;;;;;;;48.50;30.75;;;;;;;-0.13;100.00;94052.81;5071939;28;20077;-71
2022/12/26 01:32:14;;;;;;;48.72;30.83;;;;;;;-0.10;100.00;94042.44;5072046;28;20052;-71
2022/12/26 01:34:41;;;;;;;37.97;24.98;;;;;;;-0.14;100.00;94043.63;5071430;28;20091;-71
2022/12/26 01:37:08;;;;;;;33.83;21.63;;;;;;;-0.17;100.00;94052.25;5071966;28;20049;-70
2022/12/26 01:39:36;;;;;;;38.50;24.90;;;;;;;-0.16;100.00;94050.53;5072277;28;20049;-71
2022/12/26 01:42:03;;;;;;;30.77;20.70;;;;;;;-0.15;100.00;94049.59;5071522;28;20447;-71
2022/12/26 01:44:55;;;;;;;26.15;16.73;;;;;;;-0.19;100.00;94045.72;5071501;28;20106;-70
2022/12/26 01:47:24;;;;;;;18.60;12.52;;;;;;;-0.23;100.00;94046.88;5071627;28;20044;-70
2022/12/26 01:49:54;;;;;;;16.00;9.15;;;;;;;-0.32;100.00;94031.53;5071542;28;20056;-70
2022/12/26 01:52:30;;;;;;;18.00;10.50;;;;;;;-0.30;100.00;94039.00;5071180;28;20044;-70
2022/12/26 01:54:59;;;;;;;18.92;12.45;;;;;;;-0.37;100.00;94037.91;5071734;28;20048;-70
2022/12/26 01:57:31;;;;;;;14.73;10.27;;;;;;;-0.41;100.00;94037.34;5071120;28;20093;-71
2022/12/26 02:00:00;;;;;;;17.30;11.90;;;;;;;-0.38;100.00;94036.28;5071352;28;20102;-71
2022/12/26 02:02:28;;;;;;;21.85;12.68;;;;;;;-0.40;100.00;94028.84;5071365;28;20512;-71
2022/12/26 02:07:45;;;;;;;29.63;17.67;;;;;;;-0.43;100.00;94021.50;5071443;28;20129;-71
2022/12/26 02:10:17;;;;;;;30.77;22.17;;;;;;;-0.39;100.00;94025.38;5071251;28;20113;-71
2022/12/26 02:12:45;;;;;;;34.38;22.23;;;;;;;-0.40;100.00;94023.78;5070585;28;20045;-71
2022/12/26 02:15:14;;;;;;;34.28;22.58;;;;;;;-0.44;100.00;94013.13;5071310;28;20053;-71
2022/12/26 02:17:41;;;;;;;62.67;37.22;;;;;;;-0.50;100.00;94013.63;5070777;28;20070;-71
2022/12/26 02:20:18;;;;;;;42.45;25.42;;;;;;;-0.50;100.00;94022.91;5071156;28;20041;-71
2022/12/26 02:23:23;;;;;;;40.88;24.67;;;;;;;-0.44;100.00;94017.38;5070766;28;20048;-71
2022/12/26 02:26:25;;;;;;;42.50;25.50;;;;;;;-0.41;100.00;94017.16;5070949;28;20052;-70
2022/12/26 02:29:28;;;;;;;38.67;25.35;;;;;;;-0.42;100.00;94015.53;5071332;28;20105;-71
2022/12/26 02:32:08;;;;;;;42.10;26.10;;;;;;;-0.45;100.00;94015.78;5052125;28;20052;-70
2022/12/26 02:34:46;;;;;;;44.33;26.77;;;;;;;-0.47;100.00;94015.13;5070785;28;20048;-71
2022/12/26 02:37:23;;;;;;;41.33;24.77;;;;;;;-0.48;100.00;94010.97;5070680;28;20077;-71
2022/12/26 02:40:23;;;;;;;58.58;32.15;;;;;;;-0.50;100.00;94007.78;5071210;28;20101;-71
2022/12/26 02:42:58;;;;;;;52.17;27.85;;;;;;;-0.48;100.00;94016.00;5070700;28;20040;-71
2022/12/26 02:48:24;;;;;;;49.47;28.23;;;;;;;-0.58;100.00;93998.28;5070527;28;20060;-71
2022/12/26 03:13:45;;;;;;;50.95;28.50;;;;;;;-0.75;100.00;94004.69;5069524;28;20105;-72
2022/12/26 03:19:02;;;;;;;72.75;39.47;;;;;;;-0.98;100.00;93971.94;5069460;28;20051;-71
2022/12/26 03:21:34;;;;;;;73.50;38.80;;;;;;;-0.74;100.00;94011.31;5063664;28;20566;-71
2022/12/26 03:24:01;;;;;;;75.82;42.00;;;;;;;-0.99;100.00;93981.25;5068164;28;20041;-71
2022/12/26 03:26:42;;;;;;;75.97;40.38;;;;;;;-0.78;100.00;94013.28;5068790;28;20098;-71
2022/12/26 03:31:55;;;;;;;72.28;42.58;;;;;;;-0.77;100.00;94011.53;5069121;28;20531;-72
2022/12/26 03:34:21;;;;;;;78.32;41.25;;;;;;;-0.81;100.00;94026.94;5068840;28;20055;-72
2022/12/26 03:37:27;;;;;;;64.00;35.60;;;;;;;-1.04;100.00;93987.53;5068842;28;20037;-71
2022/12/26 04:19:59;;;;;;;22.42;14.15;;;;;;;-1.19;100.00;94045.00;5062872;28;20083;-73
2022/12/26 04:45:03;;;;;;;31.83;22.20;;;;;;;-1.47;100.00;94040.34;5068220;28;20170;-72
2022/12/26 04:47:30;;;;;;;29.95;20.48;;;;;;;-1.45;100.00;94035.19;5068473;28;20102;-72
2022/12/26 04:55:23;;;;;;;34.08;23.17;;;;;;;-1.79;100.00;94025.91;5068105;28;20055;-73
2022/12/26 04:57:50;;;;;;;37.50;23.90;;;;;;;-1.71;100.00;94037.94;5067868;28;20512;-72
2022/12/26 05:00:19;;;;;;;36.25;22.90;;;;;;;-1.70;100.00;94034.50;5068260;28;20045;-73
2022/12/26 05:11:20;;;;;;;39.08;27.00;;;;;;;-1.62;100.00;94048.13;5067914;28;20094;-73
2022/12/26 05:13:47;;;;;;;39.75;24.73;;;;;;;-1.66;100.00;94043.44;5067788;28;20078;-73
2022/12/26 05:30:06;;;;;;;39.63;28.45;;;;;;;-1.54;100.00;94074.44;5067645;28;20078;-73
2022/12/26 05:35:19;;;;;;;38.20;24.88;;;;;;;-1.57;100.00;94090.59;5067607;28;20051;-73
2022/12/26 05:37:46;;;;;;;47.10;30.33;;;;;;;-1.54;100.00;94079.50;5067604;28;20094;-72
2022/12/26 05:40:13;;;;;;;49.75;32.55;;;;;;;-1.59;100.00;94089.13;5067769;28;20049;-73
2022/12/26 05:42:39;;;;;;;54.47;34.25;;;;;;;-1.58;100.00;94081.44;5067725;28;20074;-72
2022/12/26 05:45:07;;;;;;;59.38;36.78;;;;;;;-1.64;100.00;94080.19;5067446;28;20382;-72
2022/12/26 05:47:35;;;;;;;55.20;34.83;;;;;;;-1.61;100.00;94084.19;5069598;28;20543;-72
2022/12/26 05:50:02;;;;;;;46.55;26.90;;;;;;;-1.63;100.00;94086.00;5070815;28;20500;-72
2022/12/26 05:52:29;;;;;;;28.30;15.68;;;;;;;-1.66;100.00;94081.22;5070784;28;20431;-72
2022/12/26 05:54:56;;;;;;;21.73;13.25;;;;;;;-1.68;100.00;94081.31;5071155;28;20037;-72
2022/12/26 05:57:22;;;;;;;22.80;15.20;;;;;;;-1.66;100.00;94088.78;5070821;28;20041;-72
2022/12/26 05:59:49;;;;;;;29.85;18.45;;;;;;;-1.71;100.00;94078.22;5070599;28;20095;-72
2022/12/26 06:02:16;;;;;;;49.20;24.55;;;;;;;-1.65;100.00;94086.16;5066323;28;20455;-73
2022/12/26 06:04:44;;;;;;;44.78;23.80;;;;;;;-1.68;100.00;94078.00;5067914;28;20140;-73
2022/12/26 06:07:11;;;;;;;53.58;27.45;;;;;;;-1.66;100.00;94084.53;5069615;28;20041;-73
2022/12/26 06:09:37;;;;;;;51.85;26.67;;;;;;;-1.69;100.00;94077.22;5070732;28;20094;-73
2022/12/26 06:12:04;;;;;;;47.00;27.25;;;;;;;-1.68;100.00;94083.84;5070720;28;20056;-73
2022/12/26 06:14:31;;;;;;;49.60;27.05;;;;;;;-1.68;100.00;94085.53;5070554;28;20098;-73
2022/12/26 06:16:58;;;;;;;53.97;29.27;;;;;;;-1.73;100.00;94070.78;5070479;28;20140;-73
2022/12/26 06:19:25;;;;;;;43.70;27.23;;;;;;;-1.66;100.00;94089.56;5070193;28;20354;-73
2022/12/26 06:21:53;;;;;;;37.65;22.70;;;;;;;-1.70;100.00;94079.84;5070495;28;20044;-73
2022/12/26 06:24:20;;;;;;;32.42;22.15;;;;;;;-1.89;100.00;94064.34;5070203;28;20100;-73
2022/12/26 06:26:46;;;;;;;37.00;24.13;;;;;;;-1.70;100.00;94083.16;5069903;28;20040;-73
2022/12/26 06:29:13;;;;;;;43.15;28.50;;;;;;;-1.78;100.00;94087.94;5070149;28;20044;-73
2022/12/26 06:31:40;;;;;;;50.13;34.63;;;;;;;-1.89;100.00;94083.72;5070418;28;20090;-73
2022/12/26 06:34:07;;;;;;;44.35;30.63;;;;;;;-1.72;100.00;94092.53;5069857;28;20105;-72
2022/12/26 06:36:33;;;;;;;58.38;40.08;;;;;;;-2.00;100.00;94094.53;5070435;28;20123;-73
2022/12/26 06:39:01;;;;;;;67.65;46.95;;;;;;;-1.91;100.00;94090.56;5070252;28;20044;-72
2022/12/26 06:41:28;;;;;;;76.03;53.17;;;;;;;-1.81;100.00;94088.97;5069719;28;20056;-72
2022/12/26 06:43:55;;;;;;;80.63;56.58;;;;;;;-1.81;100.00;94095.75;5069913;28;20508;-72
2022/12/26 06:46:24;;;;;;;62.63;42.13;;;;;;;-1.77;100.00;94087.03;5070200;28;20106;-72
2022/12/26 06:48:50;;;;;;;57.25;39.22;;;;;;;-1.67;100.00;94089.69;5070244;28;20044;-73
2022/12/26 06:51:20;;;;;;;83.93;56.60;;;;;;;-1.62;100.00;94088.44;5069793;28;20049;-72
2022/12/26 06:53:47;;;;;;;86.63;56.75;;;;;;;-1.70;100.00;94049.59;5069415;28;20550;-72
2022/12/26 06:56:17;;;;;;;83.88;55.22;;;;;;;-1.39;100.00;94082.59;5069697;28;20493;-72
2022/12/26 06:58:45;;;;;;;80.60;53.78;;;;;;;-1.30;100.00;94086.94;5069574;28;20485;-72
2022/12/26 07:01:13;;;;;;;86.40;60.28;;;;;;;-1.23;100.00;94090.63;5069671;28;20086;-72
2022/12/26 07:03:41;;;;;;;85.38;58.35;;;;;;;-1.14;100.00;94095.88;5069644;28;20121;-73
2022/12/26 07:06:13;;;;;;;88.95;62.30;;;;;;;-1.03;100.00;94097.59;5069200;28;20086;-72
2022/12/26 07:08:40;;;;;;;96.05;64.15;;;;;;;-0.96;100.00;94091.16;5069347;28;20090;-72
2022/12/26 07:11:14;;;;;;;134.50;68.70;;;;;;;-0.90;100.00;94099.97;5063577;28;20051;-72
2022/12/26 07:13:41;;;;;;;139.27;65.10;;;;;;;-0.85;100.00;94083.59;5069300;28;20102;-72
2022/12/26 07:16:08;;;;;;;90.63;48.50;;;;;;;-0.65;100.00;94106.47;5069397;28;20056;-72
2022/12/26 07:18:35;;;;;;;66.18;40.17;;;;;;;-0.53;100.00;94104.72;5069289;28;20040;-72
2022/12/26 07:21:15;;;;;;;66.50;40.03;;;;;;;-0.56;100.00;94088.09;5069116;28;20045;-72
2022/12/26 07:23:42;;;;;;;34.13;24.52;;;;;;;-0.55;100.00;94102.31;5069184;28;20861;-72
2022/12/26 07:26:09;;;;;;;34.33;24.92;;;;;;;-0.66;100.00;94084.66;5069829;28;20045;-72
2022/12/26 07:28:37;;;;;;;39.78;27.75;;;;;;;-0.43;100.00;94115.72;5064275;28;20416;-72
2022/12/26 07:31:05;;;;;;;38.50;25.83;;;;;;;-0.38;100.00;94117.06;5068787;28;20048;-72
2022/12/26 07:33:31;;;;;;;41.00;31.05;;;;;;;-0.28;100.00;94105.31;5068841;28;20397;-72
2022/12/26 07:36:05;;;;;;;40.47;29.70;;;;;;;-0.16;100.00;94093.44;5069335;28;20048;-72
2022/12/26 07:38:33;;;;;;;41.20;29.05;;;;;;;0.00;100.00;94113.25;5069575;28;20052;-72
2022/12/26 07:41:56;;;;;;;39.42;27.90;;;;;;;0.03;100.00;94099.56;5068620;28;20500;-72
2022/12/26 07:43:51;;;;;;;40.17;27.15;;;;;;;0.14;100.00;94109.63;5068771;28;20539;-72
2022/12/26 07:46:18;;;;;;;35.65;26.55;;;;;;;0.29;100.00;94119.41;5069569;28;20044;-72
2022/12/26 07:48:48;;;;;;;34.03;25.85;;;;;;;0.35;100.00;94113.84;5068337;28;20052;-73
2022/12/26 07:51:15;;;;;;;32.85;24.38;;;;;;;0.52;100.00;94128.44;5068171;28;20044;-73
2022/12/26 07:53:42;;;;;;;34.13;24.15;;;;;;;0.62;100.00;94131.03;5068938;28;20114;-73
2022/12/26 07:56:08;;;;;;;30.17;21.23;;;;;;;0.72;100.00;94125.22;5068656;28;20044;-73
2022/12/26 07:58:35;;;;;;;45.40;29.15;;;;;;;0.79;100.00;94126.34;5068853;28;20044;-73
2022/12/26 08:01:06;;;;;;;38.08;25.40;;;;;;;0.65;100.00;94094.59;5068544;28;20106;-74
2022/12/26 08:03:33;;;;;;;50.03;29.65;;;;;;;0.83;100.00;94109.94;5068194;28;20048;-73
2022/12/26 08:06:00;;;;;;;47.67;29.20;;;;;;;0.92;100.00;94110.91;5068789;28;20098;-73
2022/12/26 08:08:27;;;;;;;50.65;32.67;;;;;;;1.05;100.00;94115.75;5068086;28;20416;-73
2022/12/26 08:11:04;;;;;;;47.58;29.52;;;;;;;1.13;100.00;94126.06;5068070;28;20053;-73
2022/12/26 08:13:32;;;;;;;48.80;29.20;;;;;;;1.12;100.00;94105.94;5061533;28;20052;-72
2022/12/26 08:16:00;;;;;;;55.17;32.65;;;;;;;1.22;100.00;94113.53;5068635;28;20370;-72
2022/12/26 08:18:28;;;;;;;44.35;29.33;;;;;;;1.15;100.00;94088.75;5067943;28;20075;-73
2022/12/26 08:20:58;;;;;;;48.85;27.67;;;;;;;1.36;100.00;94120.78;5068607;28;20044;-72
2022/12/26 08:23:25;;;;;;;46.58;28.20;;;;;;;1.22;100.00;94094.09;5068271;28;21184;-73
2022/12/26 08:25:52;;;;;;;49.20;31.35;;;;;;;1.02;100.00;94052.78;5068512;28;20048;-73
2022/12/26 08:28:18;;;;;;;52.58;31.58;;;;;;;1.48;100.00;94118.13;5068680;28;20041;-72
2022/12/26 08:30:45;;;;;;;53.08;28.77;;;;;;;1.52;100.00;94125.31;5068284;28;20102;-72
2022/12/26 08:33:13;;;;;;;47.17;28.67;;;;;;;1.63;100.00;94123.63;5069360;28;20041;-72
2022/12/26 08:35:41;;;;;;;52.50;30.27;;;;;;;1.52;100.00;94120.25;5068729;28;20053;-72
2022/12/26 08:38:17;;;;;;;48.75;28.30;;;;;;;1.57;100.00;94120.66;5068598;28;20086;-72
2022/12/26 08:40:54;;;;;;;51.67;31.80;;;;;;;1.65;100.00;94121.75;5068450;28;20229;-73
2022/12/26 08:43:21;;;;;;;53.00;30.42;;;;;;;1.63;100.00;94119.34;5068910;28;20086;-72
2022/12/26 08:45:56;;;;;;;47.72;30.30;;;;;;;1.76;100.00;94120.81;5069312;28;20389;-73
2022/12/26 08:48:23;;;;;;;52.92;31.60;;;;;;;1.95;100.00;94117.50;5068226;28;20044;-73
2022/12/26 08:50:55;;;;;;;56.58;33.25;;;;;;;2.02;100.00;94085.59;5069042;28;20094;-73
2022/12/26 08:53:22;;;;;;;51.03;30.77;;;;;;;2.19;100.00;94091.75;5068673;28;20044;-73
2022/12/26 08:55:49;;;;;;;49.92;30.83;;;;;;;2.35;100.00;94103.84;5067609;28;20040;-73
2022/12/26 08:58:15;;;;;;;51.25;31.63;;;;;;;2.37;100.00;94098.63;5057415;28;20394;-73
2022/12/26 09:00:42;;;;;;;51.10;30.85;;;;;;;2.35;100.00;94098.78;5062148;28;20070;-73
2022/12/26 09:03:12;;;;;;;54.20;31.52;;;;;;;2.36;100.00;94082.63;5063439;28;20041;-73
2022/12/26 09:05:44;;;;;;;57.33;35.05;;;;;;;2.69;100.00;94091.59;5062268;28;20040;-73
2022/12/26 09:08:12;;;;;;;52.40;33.03;;;;;;;2.70;100.00;94094.00;5068350;28;20052;-73
2022/12/26 09:10:41;;;;;;;52.60;33.88;;;;;;;2.73;100.00;94086.09;5068305;28;20554;-73
2022/12/26 09:13:08;;;;;;;59.33;35.20;;;;;;;2.64;100.00;94082.66;5068509;28;20492;-73
2022/12/26 09:15:35;;;;;;;60.08;39.67;;;;;;;2.71;100.00;94077.84;5067956;28;20056;-73
2022/12/26 09:18:02;;;;;;;69.60;41.25;;;;;;;2.79;100.00;94074.63;5068658;28;20098;-72
2022/12/26 09:20:28;;;;;;;65.20;38.60;;;;;;;2.91;100.00;94076.03;5068397;28;20501;-72
2022/12/26 09:22:55;;;;;;;59.63;38.67;;;;;;;3.00;100.00;94066.75;5072582;28;20049;-73
2022/12/26 09:25:25;;;;;;;65.28;39.33;;;;;;;3.13;100.00;94066.44;5072012;28;20040;-73
2022/12/26 09:27:53;;;;;;;67.63;41.85;;;;;;;3.14;100.00;94057.09;5067483;28;20117;-73
2022/12/26 09:30:21;;;;;;;64.78;41.67;;;;;;;3.17;100.00;94065.22;5069916;28;20139;-73
2022/12/26 09:32:47;;;;;;;76.20;46.55;;;;;;;3.27;100.00;94044.03;5071871;28;20052;-72
2022/12/26 09:35:14;;;;;;;65.60;41.33;;;;;;;3.32;100.00;94057.91;5072211;28;20094;-73
2022/12/26 09:37:41;;;;;;;62.17;39.92;;;;;;;3.40;100.00;94062.25;5071490;28;20053;-72
2022/12/26 09:40:28;;;;;;;67.22;42.88;;;;;;;2.94;100.00;94019.91;5071466;28;20045;-72
2022/12/26 09:43:09;;;;;;;59.70;39.40;;;;;;;3.28;100.00;94050.72;5071217;28;20436;-72
2022/12/26 09:45:51;;;;;;;64.78;42.47;;;;;;;3.36;100.00;94049.97;5071596;28;20044;-72
2022/12/26 09:48:25;;;;;;;64.28;38.78;;;;;;;3.39;100.00;94049.69;5071361;28;20505;-72
2022/12/26 09:50:52;;;;;;;56.90;36.22;;;;;;;3.63;100.00;94058.47;5071130;28;20044;-72
2022/12/26 09:53:26;;;;;;;53.47;36.63;;;;;;;3.56;100.00;94040.50;5071660;28;20447;-72
2022/12/26 09:55:57;;;;;;;56.90;35.35;;;;;;;3.70;100.00;94041.72;5046104;28;20044;-72
2022/12/26 09:58:28;;;;;;;91.13;47.88;;;;;;;3.83;100.00;94024.34;5071210;28;20048;-73
2022/12/26 10:01:01;;;;;;;69.68;41.92;;;;;;;3.94;100.00;94007.28;5071746;28;20063;-72
2022/12/26 10:03:28;;;;;;;65.15;36.17;;;;;;;3.89;100.00;93995.00;5071007;28;20071;-73
2022/12/26 10:06:11;;;;;;;53.03;33.67;;;;;;;4.55;100.00;94038.59;5071587;28;20053;-73
2022/12/26 10:09:08;;;;;;;54.30;30.15;;;;;;;4.29;100.00;93975.03;5071640;28;20135;-72
2022/12/26 10:11:49;;;;;;;47.67;30.00;;;;;;;4.80;100.00;94048.91;5049858;28;20044;-72
2022/12/26 10:14:31;;;;;;;58.97;36.03;;;;;;;4.19;100.00;93929.38;5071366;28;20625;-72
2022/12/26 10:17:05;;;;;;;49.47;30.58;;;;;;;5.00;100.00;94043.56;5046937;28;20488;-72
2022/12/26 10:20:04;;;;;;;75.28;35.15;;;;;;;4.85;100.00;94006.94;5071149;28;20102;-72
2022/12/26 10:23:02;;;;;;;90.32;41.42;;;;;;;5.13;100.00;94024.50;5071404;28;20048;-72
2022/12/26 10:25:41;;;;;;;44.08;25.88;;;;;;;5.13;100.00;94020.19;5055458;28;20055;-72
2022/12/26 10:28:17;;;;;;;46.80;29.00;;;;;;;5.21;100.00;94032.97;5070964;28;20130;-72
2022/12/26 10:30:46;;;;;;;41.15;27.05;;;;;;;5.26;100.00;94024.03;5070972;28;20044;-72
2022/12/26 10:33:18;;;;;;;65.07;33.42;;;;;;;5.34;100.00;94008.78;5069980;28;20423;-72
2022/12/26 10:35:46;;;;;;;52.28;32.17;;;;;;;5.46;100.00;94010.06;5070451;28;20536;-72
2022/12/26 10:38:18;;;;;;;39.83;24.50;;;;;;;5.57;100.00;94008.16;5070811;28;20049;-72
2022/12/26 10:40:50;;;;;;;51.95;30.13;;;;;;;5.70;100.00;94007.69;5070394;28;20102;-72
2022/12/26 10:43:28;;;;;;;41.70;23.80;;;;;;;5.67;100.00;94013.09;5070670;28;20044;-72
2022/12/26 10:46:16;;;;;;;33.70;19.92;;;;;;;5.41;100.00;93975.84;5043672;28;20587;-72
2022/12/26 10:48:43;;;;;;;30.92;19.40;;;;;;;5.74;100.00;94008.97;5070209;28;20044;-71
2022/12/26 10:51:11;;;;;;;37.08;21.25;;;;;;;5.78;100.00;93994.94;5070402;28;20053;-72
2022/12/26 10:53:41;;;;;;;33.92;19.98;;;;;;;6.01;100.00;94014.69;5070765;28;20052;-72
2022/12/26 10:56:09;;;;;;;33.20;20.70;;;;;;;6.18;100.00;94010.41;5070706;28;20045;-72
2022/12/26 10:58:39;;;;;;;23.75;14.52;;;;;;;6.27;100.00;93996.66;5071305;28;20044;-72
2022/12/26 11:01:32;;;;;;;28.25;16.23;;;;;;;6.38;100.00;93987.84;5071118;28;20425;-72
2022/12/26 11:04:00;;;;;;;41.70;22.13;;;;;;;6.51;100.00;93981.44;5070404;28;20139;-72
2022/12/26 11:06:31;;;;;;;28.30;17.33;;;;;;;6.91;100.00;93986.53;5069483;28;20084;-72
2022/12/26 11:08:59;;;;;;;35.78;20.73;;;;;;;6.92;100.00;93986.38;5070053;28;20405;-72
2022/12/26 11:11:45;;;;;;;44.55;25.92;;;;;;;7.14;100.00;93994.25;5069560;28;20539;-72
2022/12/26 11:14:30;;;;;;;;;;;;;;;7.33;100.00;93994.78;5070657;28;20131;-72
2022/12/26 11:17:00;;;;;;;65.97;36.35;;;;;;;7.52;100.00;93992.72;5070461;28;20372;-72
2022/12/26 11:19:28;;;;;;;32.33;17.27;;;;;;;7.66;100.00;93986.06;5069868;28;20056;-73
2022/12/26 11:22:13;;;;;;;10.57;5.45;;;;;;;7.79;100.00;93990.59;5070197;28;20060;-72
2022/12/26 11:24:40;;;;;;;39.13;11.03;;;;;;;8.04;100.00;94001.41;5069674;28;20086;-72
2022/12/26 11:27:17;;;;;;;16.75;5.05;;;;;;;8.24;100.00;93998.38;5069902;28;20078;-72
2022/12/26 11:29:46;;;;;;;33.38;10.73;;;;;;;8.46;100.00;94001.81;5069412;28;20098;-72
2022/12/26 11:32:19;;;;;;;14.65;4.75;;;;;;;8.53;100.00;93997.59;5070044;28;20044;-72
2022/12/26 11:34:48;;;;;;;24.73;9.95;;;;;;;8.64;100.00;94000.69;5069694;28;20094;-72
2022/12/26 11:37:25;;;;;;;113.00;31.90;;;;;;;8.85;100.00;93999.16;5069886;28;20102;-72
2022/12/26 11:39:53;;;;;;;14.30;6.05;;;;;;;8.92;98.64;94007.72;5069996;28;20048;-72
2022/12/26 11:42:24;;;;;;;58.40;19.23;;;;;;;9.01;98.17;93998.16;5069739;28;20048;-72
2022/12/26 11:44:56;;;;;;;12.52;4.60;;;;;;;9.16;95.88;93977.63;5064121;28;20056;-72
2022/12/26 11:47:27;;;;;;;8.15;2.13;;;;;;;9.05;98.03;93982.25;5067849;28;20052;-72
2022/12/26 11:49:59;;;;;;;7.03;2.97;;;;;;;9.01;96.98;93977.66;5069541;28;20128;-72
2022/12/26 11:52:39;;;;;;;14.50;5.35;;;;;;;8.95;99.27;93979.19;5068992;28;20048;-72
2022/12/26 11:55:26;;;;;;;38.88;13.35;;;;;;;9.08;98.44;93974.19;5069023;28;20411;-72
2022/12/26 11:57:57;;;;;;;8.00;3.28;;;;;;;9.19;95.29;93965.25;5062941;28;20053;-72
2022/12/26 12:00:26;;;;;;;8.52;3.50;;;;;;;9.13;95.51;93934.41;5069230;28;20044;-72
2022/12/26 12:02:54;;;;;;;11.48;4.38;;;;;;;9.35;96.90;93961.63;5069330;28;20051;-72
2022/12/26 12:05:36;;;;;;;6.15;2.65;;;;;;;9.49;94.65;93956.63;5069208;28;20048;-72
2022/12/26 12:08:26;;;;;;;7.90;3.15;;;;;;;9.49;93.28;93948.94;5068953;28;20041;-72
2022/12/26 12:11:05;;;;;;;8.98;3.08;;;;;;;9.48;94.78;93931.97;5069236;28;20040;-72
2022/12/26 12:13:42;;;;;;;17.67;8.10;;;;;;;9.64;94.91;93943.75;5068524;28;20048;-72
2022/12/26 12:16:29;;;;;;;7.57;3.67;;;;;;;9.60;93.94;93945.09;5068875;28;20139;-72
2022/12/26 12:19:02;;;;;;;17.40;7.13;;;;;;;9.53;95.49;93946.81;5068821;28;20048;-72
2022/12/26 12:21:37;;;;;;;7.95;3.10;;;;;;;9.48;94.73;93937.09;5068416;28;20040;-72
2022/12/26 12:24:25;;;;;;;18.42;8.38;;;;;;;9.49;93.74;93936.09;5069356;28;20044;-72
2022/12/26 12:27:05;;;;;;;47.28;25.98;;;;;;;9.57;93.04;93941.13;5046349;28;20094;-72
2022/12/26 12:29:45;;;;;;;13.07;6.07;;;;;;;9.66;92.34;93946.09;5066554;28;20119;-72
2022/12/26 12:32:18;;;;;;;8.23;3.13;;;;;;;9.68;92.09;93944.94;5067466;28;20052;-72
2022/12/26 12:35:13;;;;;;;8.73;3.70;;;;;;;9.68;92.11;93947.50;5064641;28;20055;-71
2022/12/26 12:37:57;;;;;;;13.13;7.43;;;;;;;9.84;91.85;93943.09;5050139;28;20483;-72
2022/12/26 12:40:32;;;;;;;7.50;4.05;;;;;;;9.79;92.50;93942.84;5067827;28;20044;-72
2022/12/26 12:43:05;;;;;;;9.07;4.17;;;;;;;9.64;91.16;93920.66;5061639;28;20045;-73
2022/12/26 12:45:35;;;;;;;6.35;3.05;;;;;;;9.79;92.42;93946.22;5056021;28;20294;-72
2022/12/26 12:48:19;;;;;;;7.35;2.65;;;;;;;9.80;91.13;93940.09;5069409;28;20471;-72
2022/12/26 12:50:55;;;;;;;8.73;3.63;;;;;;;9.96;91.31;93941.59;5067910;28;20094;-72
2022/12/26 12:53:36;;;;;;;5.80;2.70;;;;;;;9.95;88.04;93944.38;5067122;28;20048;-72
2022/12/26 12:56:17;;;;;;;7.43;3.65;;;;;;;9.98;88.25;93939.66;5061626;28;20433;-72
2022/12/26 12:58:57;;;;;;;6.25;2.70;;;;;;;9.91;90.96;93928.56;5065487;28;20060;-73
2022/12/26 13:01:33;;;;;;;22.33;11.27;;;;;;;9.97;89.62;93932.13;5072563;28;20067;-73
2022/12/26 13:04:08;;;;;;;14.93;7.60;;;;;;;10.08;90.26;93939.31;5072683;28;20044;-72
2022/12/26 13:06:40;;;;;;;33.42;18.48;;;;;;;10.10;89.73;93946.81;5072375;28;20074;-72
2022/12/26 13:09:15;;;;;;;24.02;12.20;;;;;;;10.12;88.98;93950.00;5072343;28;20045;-72
2022/12/26 13:11:46;;;;;;;6.75;3.83;;;;;;;9.97;90.39;93945.78;5071771;28;20064;-72
2022/12/26 13:14:19;;;;;;;6.60;3.03;;;;;;;9.88;88.37;93946.88;5072413;28;20057;-72
2022/12/26 13:16:50;;;;;;;9.70;3.70;;;;;;;9.94;88.35;93950.44;5071853;28;20594;-72
2022/12/26 13:19:25;;;;;;;9.00;4.20;;;;;;;9.87;89.68;93946.06;5072449;28;20227;-73
2022/12/26 13:21:57;;;;;;;14.32;7.22;;;;;;;9.96;91.49;93944.16;5072395;28;20040;-72
2022/12/26 13:24:32;;;;;;;11.10;4.78;;;;;;;10.07;88.68;93942.84;5070890;28;20044;-72
2022/12/26 13:27:04;;;;;;;8.05;4.32;;;;;;;10.11;88.66;93945.84;5047111;28;20130;-72
2022/12/26 13:29:39;;;;;;;7.30;3.92;;;;;;;10.21;87.15;93950.63;5071693;28;20427;-72
2022/12/26 13:32:17;;;;;;;8.32;4.22;;;;;;;10.19;87.37;93939.78;5071915;28;20056;-72
2022/12/26 13:34:46;;;;;;;12.30;4.35;;;;;;;10.32;87.18;93942.41;5072635;28;20514;-72
2022/12/26 13:37:50;;;;;;;8.80;4.18;;;;;;;10.35;87.05;93933.53;5072852;28;20049;-72
2022/12/26 13:40:19;;;;;;;15.82;8.27;;;;;;;10.25;86.30;93921.03;5052804;28;20389;-72
2022/12/26 13:45:50;;;;;;;10.73;6.03;;;;;;;10.25;86.99;93939.81;5071887;28;20859;-73
2022/12/26 13:48:54;;;;;;;10.02;5.25;;;;;;;10.22;87.82;93939.38;5071598;28;20051;-72